Palchem 1 — 9HA2097 — position and weather

sailwx.info

Track history (hours):
 
Tides and Currents Weather Stations Pressure Air Temp Water Temp Dewpoint Dewpoint Depression Visibility Wind Speed Wind Dir Waves Ship Positions

Palchem 1

Last reported at 2016-May-24 06:33 UTC. Time now 2016-May-26 14:38 UTC.
Position N 34°22' E 019°39'.

Length 143 m; draft 6 m.

Type: Tanker. MMSI: 249955000.

Date/timePositionNaut miles runAvg speedWind from/ knotsBaromVisibWave heightAir tempDewpointWater temp
2016-May-24 06:33N 34°22' E 019°39'1111.1
2016-May-24 05:33N 34°23' E 019°26'2110.6
2016-May-24 03:33N 34°25' E 019°00'5710.5
2016-May-23 22:08N 34°30' E 017°51'610.6
2016-May-23 21:33N 34°31' E 017°44'1110.7
2016-May-23 20:29N 34°32' E 017°30'1010.7
2016-May-23 19:33N 34°33' E 017°18'2110.5
2016-May-23 17:33N 34°34' E 016°53'1210.3
2016-May-23 16:23N 34°36' E 016°38'4010.6
2016-May-23 12:33N 34°39' E 015°49'1111.3
2016-May-23 11:33N 34°40' E 015°36'1111.4
2016-May-23 10:33N 34°41' E 015°22'1111.5
2016-May-23 09:33N 34°42' E 015°08'1211.5
2016-May-23 08:33N 34°43' E 014°54'1111.2
2016-May-23 07:33N 34°44' E 014°40'1110.8
2016-May-23 06:33N 34°45' E 014°27'1010.3
2016-May-23 05:33N 34°48' E 014°15'1110.7
2016-May-23 04:33N 34°56' E 014°07'1110.5
2016-May-23 03:33N 35°05' E 013°60'1010.3
2016-May-23 02:33N 35°13' E 013°52'1010.3
2016-May-23 01:33N 35°21' E 013°44'1010.4
2016-May-23 00:33N 35°30' E 013°37'1110.5
2016-May-22 23:33N 35°38' E 013°29'1010.1
2016-May-22 22:33N 35°46' E 013°21'1010.0
2016-May-22 21:33N 35°54' E 013°14'1010.0
2016-May-22 20:33N 36°02' E 013°07'9 9.1
2016-May-22 19:33N 36°08' E 012°58'10 9.8
2016-May-22 18:33N 36°07' E 012°46'10 9.6
2016-May-22 17:33N 36°06' E 012°34'10 9.8
2016-May-22 16:33N 36°05' E 012°22'1010.3
2016-May-22 15:33N 36°04' E 012°09'1010.5
2016-May-22 14:33N 36°03' E 011°57'1110.9
2016-May-22 13:33N 36°02' E 011°43'1111.3
2016-May-22 12:33N 36°01' E 011°29'1111.2
2016-May-22 11:33N 36°00' E 011°15'  
2016-May-18 14:28N 35°51' E 010°42'0 0.0
2016-May-18 13:31N 35°51' E 010°42'0 0.0
2016-May-18 12:31N 35°51' E 010°42'0 0.0
2016-May-18 08:22N 35°51' E 010°42'23 2.1
2016-May-17 21:29N 35°58' E 011°09'1011.1
2016-May-17 20:33N 36°06' E 011°18'  
Track history (hours):
 
Tides and Currents Weather Stations Pressure Air Temp Water Temp Dewpoint Dewpoint Depression Visibility Wind Speed Wind Dir Waves Ship Positions

Palchem 1

Last reported at 2016-May-24 06:33 UTC. Time now 2016-May-26 14:38 UTC.
Position N 34°22' E 019°39'.

Length 143 m; draft 6 m.

Type: Tanker. MMSI: 249955000.

Date/timePositionNaut miles runAvg speedWind from/ knotsBaromVisibWave heightAir tempDewpointWater temp
2016-May-24 06:33N 34°22' E 019°39'1111.1
2016-May-24 05:33N 34°23' E 019°26'2110.6
2016-May-24 03:33N 34°25' E 019°00'5710.5
2016-May-23 22:08N 34°30' E 017°51'610.6
2016-May-23 21:33N 34°31' E 017°44'1110.7
2016-May-23 20:29N 34°32' E 017°30'1010.7
2016-May-23 19:33N 34°33' E 017°18'2110.5
2016-May-23 17:33N 34°34' E 016°53'1210.3
2016-May-23 16:23N 34°36' E 016°38'4010.6
2016-May-23 12:33N 34°39' E 015°49'1111.3
2016-May-23 11:33N 34°40' E 015°36'1111.4
2016-May-23 10:33N 34°41' E 015°22'1111.5
2016-May-23 09:33N 34°42' E 015°08'1211.5
2016-May-23 08:33N 34°43' E 014°54'1111.2
2016-May-23 07:33N 34°44' E 014°40'1110.8
2016-May-23 06:33N 34°45' E 014°27'1010.3
2016-May-23 05:33N 34°48' E 014°15'1110.7
2016-May-23 04:33N 34°56' E 014°07'1110.5
2016-May-23 03:33N 35°05' E 013°60'1010.3
2016-May-23 02:33N 35°13' E 013°52'1010.3
2016-May-23 01:33N 35°21' E 013°44'1010.4
2016-May-23 00:33N 35°30' E 013°37'1110.5
2016-May-22 23:33N 35°38' E 013°29'1010.1
2016-May-22 22:33N 35°46' E 013°21'1010.0
2016-May-22 21:33N 35°54' E 013°14'1010.0
2016-May-22 20:33N 36°02' E 013°07'9 9.1
2016-May-22 19:33N 36°08' E 012°58'10 9.8
2016-May-22 18:33N 36°07' E 012°46'10 9.6
2016-May-22 17:33N 36°06' E 012°34'10 9.8
2016-May-22 16:33N 36°05' E 012°22'1010.3
2016-May-22 15:33N 36°04' E 012°09'1010.5
2016-May-22 14:33N 36°03' E 011°57'1110.9
2016-May-22 13:33N 36°02' E 011°43'1111.3
2016-May-22 12:33N 36°01' E 011°29'1111.2
2016-May-22 11:33N 36°00' E 011°15'  
2016-May-18 14:28N 35°51' E 010°42'0 0.0
2016-May-18 13:31N 35°51' E 010°42'0 0.0
2016-May-18 12:31N 35°51' E 010°42'0 0.0
2016-May-18 08:22N 35°51' E 010°42'23 2.1
2016-May-17 21:29N 35°58' E 011°09'1011.1
2016-May-17 20:33N 36°06' E 011°18'  

Dump ship's entire track history